Data for 02/04/2006

Time Sea-Level Adjusted Pressure Absolute Pressure Temperature Relative Humidity Dew Point   
(mb) (inHg) (mb) (inHg) (C) (F) (%) (C) (F)
00:05 1018 30.06 847 25.01 -1.8 28.8 44 -12.5 9.5
00:10 1018 30.06 847 25.01 -1.8 28.8 45 -12.2 10.1
00:15 1018 30.06 847 25.01 -1.7 28.9 46 -12 10.5
00:20 1018 30.06 847 25.01 -1.7 28.9 46 -11.9 10.6
00:25 1018 30.06 847 25.01 -1.5 29.2 46 -11.8 10.8
00:30 1018 30.06 847 25.01 -1.4 29.5 46 -11.6 11.1
00:35 1018 30.06 847 25.01 -1.3 29.6 47 -11.4 11.5
00:40 1018 30.06 847 25.01 -1.3 29.6 48 -10.9 12.4
00:45 1017 30.03 847 25.01 -1.3 29.7 49 -10.8 12.5
00:50 1017 30.03 847 25.01 -1.2 29.9 47 -11 12.2
00:55 1017 30.03 847 25.01 -1 30.1 48 -10.8 12.6
01:00 1017 30.03 846 24.98 -0.9 30.4 47 -10.9 12.4
01:05 1017 30.03 846 24.98 -0.6 30.9 46 -10.9 12.3
01:10 1017 30.03 846 24.98 -0.5 31.1 46 -10.8 12.6
01:15 1017 30.03 846 24.98 -0.5 31.2 47 -10.6 13
01:20 1017 30.03 846 24.98 -0.5 31.1 48 -10.3 13.5
01:25 1017 30.03 846 24.98 -0.5 31 48 -10.3 13.5
01:30 1017 30.03 846 24.98 -0.5 31.1 48 -10.3 13.5
01:35 1017 30.03 846 24.98 -0.5 31.2 48 -10.1 13.8
01:40 1017 30.03 846 24.98 -0.4 31.3 48 -10 13.9
01:45 1017 30.03 846 24.98 -0.3 31.4 48 -10.1 13.8
01:50 1017 30.03 846 24.98 -0.2 31.7 47 -10.1 13.9
01:55 1017 30.03 846 24.98 -0 32 48 -9.9 14.2
02:00 1017 30.03 846 24.98 -0 32 48 -9.9 14.2
02:05 1017 30.03 846 24.98 -0.1 31.9 49 -9.6 14.7
02:10 1017 30.03 846 24.98 -0.1 31.8 48 -9.8 14.4
02:15 1017 30.03 846 24.98 -0.1 31.8 48 -9.9 14.3
02:20 1017 30.03 846 24.98 -0.1 31.9 47 -10 14.1
02:25 1016 30 846 24.98 -0.1 31.8 48 -9.8 14.3
02:30 1016 30 846 24.98 -0.1 31.9 49 -9.7 14.6
02:35 1017 30.03 846 24.98 -0.2 31.6 49 -9.6 14.7
02:40 1016 30 846 24.98 -0.2 31.7 49 -9.6 14.6
02:45 1016 30 846 24.98 -0.3 31.5 50 -9.6 14.8
02:50 1016 30 846 24.98 -0.3 31.5 50 -9.6 14.7
02:55 1016 30 845 24.95 -0.4 31.2 50 -9.6 14.8
03:00 1016 30 845 24.95 -0.5 31.1 50 -9.6 14.7
03:05 1016 30 845 24.95 -0.5 31 51 -9.6 14.8
03:10 1016 30 845 24.95 -0.4 31.4 50 -9.6 14.7
03:15 1016 30 845 24.95 -0.4 31.3 50 -9.5 14.9
03:20 1015 29.97 845 24.95 -0.5 31.2 50 -9.5 14.8
03:25 1015 29.97 845 24.95 -0.7 30.8 51 -9.7 14.6
03:30 1015 29.97 844 24.92 -0.5 31 51 -9.5 14.8
03:35 1015 29.97 844 24.92 -0.9 30.4 52 -9.6 14.7
03:40 1015 29.97 844 24.92 -1 30.3 51 -9.8 14.4
03:45 1015 29.97 844 24.92 -1 30.1 52 -9.6 14.7
03:50 1015 29.97 844 24.92 -0.7 30.8 52 -9.4 15
03:55 1015 29.97 844 24.92 -0.3 31.4 51 -9.2 15.4
04:00 1015 29.97 844 24.92 0 32 50 -9.1 15.6
04:05 1015 29.97 844 24.92 0.1 32.1 51 -8.9 15.9
04:10 1015 29.97 844 24.92 0.1 32.1 51 -9 15.8
04:15 1015 29.97 844 24.92 -0.1 31.8 52 -8.9 16
04:20 1014 29.94 844 24.92 -0.1 31.8 51 -9 15.8
04:25 1014 29.94 844 24.92 0.1 32.1 51 -9 15.9
04:30 1014 29.94 844 24.92 0.1 32.2 51 -9 15.8
04:35 1014 29.94 844 24.92 0.1 32.2 51 -8.8 16.1
04:40 1014 29.94 843 24.89 -0 31.9 52 -8.7 16.4
04:45 1014 29.94 843 24.89 -0.1 31.9 53 -8.6 16.6
04:50 1014 29.94 843 24.89 -0.1 31.9 53 -8.5 16.8
04:55 1014 29.94 843 24.89 -0 31.9 53 -8.5 16.6
05:00 1014 29.94 843 24.89 -0.1 31.7 54 -8.5 16.7
05:05 1014 29.94 843 24.89 -0.3 31.5 54 -8.4 16.8
05:10 1014 29.94 843 24.89 -0.2 31.7 54 -8.3 17
05:15 1014 29.94 843 24.89 -0.2 31.7 54 -8.4 17
05:20 1014 29.94 843 24.89 -0.3 31.5 55 -8.3 17
05:25 1014 29.94 843 24.89 -0.4 31.3 55 -8.3 17.1
05:30 1014 29.94 843 24.89 -0.4 31.3 55 -8.4 17
05:35 1013 29.91 843 24.89 -0.7 30.7 56 -8.4 16.9
05:40 1013 29.91 842 24.86 -1 30.2 56 -8.7 16.4
05:45 1013 29.91 842 24.86 -1.5 29.3 59 -8.6 16.6
05:50 1013 29.91 842 24.86 -1.4 29.5 57 -8.7 16.3
05:55 1013 29.91 842 24.86 -1.2 29.8 57 -8.7 16.3
06:00 1013 29.91 842 24.86 -1.3 29.8 58 -8.6 16.5
06:05 1013 29.91 842 24.86 -1.3 29.6 58 -8.5 16.8
06:10 1013 29.91 842 24.86 -1.2 29.8 59 -8.2 17.2
06:15 1013 29.91 842 24.86 -0.8 30.5 58 -8.1 17.4
06:20 1013 29.91 842 24.86 -0.6 31 57 -7.9 17.7
06:25 1012 29.88 842 24.86 -0.1 31.9 56 -7.8 18
06:30 1012 29.88 841 24.83 0.2 32.4 56 -7.5 18.4
06:35 1012 29.88 841 24.83 0.2 32.4 57 -7.4 18.7
06:40 1012 29.88 841 24.83 0.2 32.4 57 -7.3 18.8
06:45 1012 29.88 841 24.83 0.3 32.5 57 -7.2 19.1
06:50 1012 29.88 841 24.83 0.4 32.7 57 -7.1 19.2
06:55 1012 29.88 841 24.83 0.7 33.3 56 -7.2 19.1
07:00 1012 29.88 841 24.83 0.8 33.5 56 -7.1 19.3
07:05 1012 29.88 841 24.83 0.5 33 56 -7.2 19
07:10 1012 29.88 841 24.83 0.3 32.5 57 -7.3 18.9
07:15 1012 29.88 841 24.83 0.2 32.4 58 -7.2 19.1
07:20 1012 29.88 841 24.83 -0 32 58 -7.3 18.9
07:25 1012 29.88 841 24.83 -0.1 31.7 57 -7.7 18.2
07:30 1012 29.88 841 24.83 -0.6 31 55 -8.7 16.4
07:35 1011 29.85 841 24.83 -0.5 31.1 57 -8.1 17.5
07:40 1011 29.85 841 24.83 -1 30.3 58 -8.2 17.3
07:45 1011 29.85 841 24.83 -1.3 29.6 60 -8.2 17.2
07:50 1011 29.85 841 24.83 -1.1 30.1 54 -9.2 15.4
07:55 1011 29.85 841 24.83 -0.5 31.1 56 -8.2 17.2
08:00 1011 29.85 841 24.83 -1.2 29.9 58 -8.5 16.8
08:05 1011 29.85 841 24.83 -1.9 28.6 58 -9 15.7
08:10 1011 29.85 841 24.83 -1.5 29.2 59 -8.6 16.5
08:15 1011 29.85 841 24.83 -1.6 29.2 58 -8.8 16.1
08:20 1011 29.85 840 24.81 -1.5 29.3 58 -8.8 16.2
08:25 1011 29.85 840 24.81 -1.7 28.9 59 -8.6 16.5
08:30 1011 29.85 840 24.81 -2.3 27.9 63 -8.4 17
08:35 1011 29.85 840 24.81 -2.3 27.9 60 -9 15.8
08:40 1011 29.85 840 24.81 -2.1 28.3 58 -9.2 15.5
08:45 1011 29.85 840 24.81 -1.5 29.2 59 -8.5 16.6
08:50 1011 29.85 840 24.81 -0.7 30.8 58 -8 17.6
08:55 1011 29.85 840 24.81 -0.6 30.9 58 -7.8 17.9
09:00 1011 29.85 840 24.81 -1.4 29.5 60 -8.2 17.2
09:05 1011 29.85 840 24.81 -1.6 29.2 61 -8.1 17.4
09:10 1011 29.85 840 24.81 -0.5 31 57 -8 17.6
09:15 1011 29.85 840 24.81 -0.7 30.8 59 -7.7 18.1
09:20 1011 29.85 840 24.81 -0.9 30.4 59 -7.9 17.8
09:25 1010 29.83 840 24.81 -0.4 31.3 57 -7.9 17.7
09:30 1010 29.83 840 24.81 0.3 32.5 55 -7.6 18.3
09:35 1010 29.83 840 24.81 0 32 57 -7.4 18.6
09:40 1010 29.83 839 24.78 -0.2 31.6 58 -7.5 18.6
09:45 1010 29.83 839 24.78 -0.1 31.8 57 -7.5 18.4
09:50 1010 29.83 839 24.78 -0.1 31.8 59 -7.3 18.9
09:55 1010 29.83 839 24.78 -0.3 31.5 61 -7 19.4
10:00 1010 29.83 839 24.78 0.9 33.7 55 -7.1 19.3
10:05 1009 29.8 839 24.78 1.3 34.3 56 -6.7 20
10:10 1009 29.8 839 24.78 1.5 34.6 55 -6.7 20
10:15 1009 29.8 839 24.78 1.3 34.4 56 -6.5 20.4
10:20 1009 29.8 838 24.75 1.9 35.4 54 -6.5 20.3
10:25 1009 29.8 838 24.75 2.5 36.5 52 -6.4 20.5
10:30 1009 29.8 838 24.75 3.1 37.5 51 -6.1 21
10:35 1009 29.8 838 24.75 3.4 38 49 -6.3 20.7
10:40 1009 29.8 838 24.75 3.3 37.9 50 -6.1 21.1
10:45 1009 29.8 838 24.75 3.4 38.1 50 -6 21.3
10:50 1009 29.8 838 24.75 3.7 38.7 49 -6 21.1
10:55 1009 29.8 838 24.75 3.9 39.1 49 -5.9 21.4
11:00 1009 29.8 838 24.75 4 39.2 50 -5.5 22.1
11:05 1009 29.8 838 24.75 4.3 39.7 49 -5.5 22.1
11:10 1009 29.8 838 24.75 4.4 39.9 48 -5.7 21.8
11:15 1009 29.8 838 24.75 4.4 39.9 48 -5.7 21.7
11:20 1008 29.77 838 24.75 4.3 39.8 49 -5.6 21.9
11:25 1008 29.77 838 24.75 4.3 39.8 48 -5.8 21.6
11:30 1008 29.77 837 24.72 4.4 39.9 48 -5.7 21.8
11:35 1008 29.77 837 24.72 3.9 39 50 -5.7 21.8
11:40 1008 29.77 837 24.72 4.2 39.5 48 -5.8 21.6
11:45 1008 29.77 837 24.72 4.6 40.3 47 -5.8 21.6
11:50 1008 29.77 837 24.72 5 41 47 -5.4 22.3
11:55 1008 29.77 837 24.72 5.2 41.4 48 -4.9 23.1
12:00 1008 29.77 837 24.72 5 41.1 48 -4.9 23.1
12:05 1008 29.77 837 24.72 4.6 40.3 49 -5.3 22.5
12:10 1008 29.77 837 24.72 4.6 40.4 50 -4.9 23.1
12:15 1007 29.74 837 24.72 4.5 40 50 -5.1 22.8
12:20 1007 29.74 837 24.72 4.5 40 50 -5 23
12:25 1007 29.74 837 24.72 4.6 40.3 50 -5 22.9
12:30 1007 29.74 837 24.72 4.7 40.5 49 -5 23
12:35 1007 29.74 836 24.69 5 41 47 -5.2 22.6
12:40 1007 29.74 836 24.69 5 40.9 49 -4.9 23.2
12:45 1007 29.74 836 24.69 4.8 40.7 48 -5.2 22.7
12:50 1007 29.74 836 24.69 5 41 51 -4.2 24.4
12:55 1007 29.74 836 24.69 5.1 41.2 46 -5.7 21.8
13:00 1006 29.71 836 24.69 5.6 42.1 47 -4.8 23.3
13:05 1006 29.71 836 24.69 5.3 41.6 46 -5.3 22.5
13:10 1006 29.71 835 24.66 5.7 42.2 47 -4.8 23.3
13:15 1006 29.71 835 24.66 5.5 42 45 -5.4 22.3
13:20 1006 29.71 835 24.66 6.2 43.1 43 -5.4 22.4
13:25 1006 29.71 835 24.66 6.5 43.8 43 -5.3 22.5
13:30 1006 29.71 835 24.66 6.4 43.6 44 -4.8 23.4
13:35 1006 29.71 835 24.66 6.1 43 45 -5 23
13:40 1006 29.71 835 24.66 6 42.8 44 -5.2 22.6
13:45 1006 29.71 835 24.66 6.1 43 43 -5.6 21.8
13:50 1006 29.71 835 24.66 6.3 43.3 43 -5.4 22.3
13:55 1006 29.71 835 24.66 6.4 43.6 42 -5.5 22.1
14:00 1006 29.71 835 24.66 6.6 43.8 42 -5.5 22
14:05 1006 29.71 835 24.66 6.7 44 45 -4.4 24.1
14:10 1005 29.68 835 24.66 6.7 44 45 -4.4 24.2
14:15 1005 29.68 835 24.66 6.3 43.4 48 -3.9 25
14:20 1005 29.68 835 24.66 6.1 43 49 -3.8 25.2
14:25 1005 29.68 835 24.66 6 42.8 50 -3.5 25.7
14:30 1005 29.68 835 24.66 5.7 42.2 52 -3.5 25.8
14:35 1005 29.68 835 24.66 5.6 42.2 53 -3.1 26.5
14:40 1005 29.68 835 24.66 5.5 41.9 53 -3.3 26
14:45 1005 29.68 835 24.66 5.4 41.8 53 -3.4 25.9
14:50 1006 29.71 835 24.66 5.4 41.8 53 -3.4 25.8
14:55 1006 29.71 835 24.66 5.7 42.2 53 -3.2 26.3
15:00 1006 29.71 835 24.66 5.5 41.8 53 -3.4 25.9
15:05 1006 29.71 835 24.66 5.7 42.2 52 -3.4 25.9
15:10 1005 29.68 835 24.66 5.8 42.5 53 -3.1 26.3
15:15 1005 29.68 835 24.66 5.8 42.4 52 -3.2 26.2
15:20 1005 29.68 835 24.66 5.8 42.5 52 -3.3 26.1
15:25 1006 29.71 835 24.66 5.8 42.5 52 -3.3 26
15:30 1006 29.71 835 24.66 5.9 42.7 52 -3.1 26.4
15:35 1006 29.71 835 24.66 5.9 42.7 51 -3.3 26
15:40 1006 29.71 835 24.66 5.9 42.7 52 -3.2 26.3
15:45 1005 29.68 835 24.66 5.8 42.4 51 -3.5 25.6
15:50 1005 29.68 835 24.66 5.9 42.7 50 -3.7 25.3
15:55 1005 29.68 835 24.66 6.1 42.9 49 -3.9 25
16:00 1005 29.68 835 24.66 6.4 43.5 49 -3.7 25.4
16:05 1005 29.68 835 24.66 6.8 44.2 47 -3.8 25.2
16:10 1005 29.68 835 24.66 6.8 44.3 48 -3.5 25.7
16:15 1005 29.68 835 24.66 6.9 44.4 48 -3.3 26
16:20 1005 29.68 835 24.66 6.8 44.3 48 -3.5 25.7
16:25 1005 29.68 834 24.63 6.5 43.7 50 -3.3 26.1
16:30 1005 29.68 834 24.63 6.4 43.5 50 -3.4 26
16:35 1005 29.68 835 24.66 6.3 43.3 50 -3.3 26.1
16:40 1005 29.68 835 24.66 6.1 43 51 -3.3 26.1
16:45 1005 29.68 835 24.66 6.1 43 51 -3.2 26.2
16:50 1005 29.68 835 24.66 6.1 42.9 51 -3.2 26.2
16:55 1005 29.68 835 24.66 5.9 42.7 52 -3 26.5
17:00 1006 29.71 835 24.66 5.7 42.3 52 -3.4 25.9
17:05 1006 29.71 835 24.66 5.8 42.4 53 -3.2 26.3
17:10 1006 29.71 835 24.66 5.8 42.4 53 -3.1 26.4
17:15 1006 29.71 835 24.66 5.7 42.2 54 -3 26.6
17:20 1006 29.71 836 24.69 5.3 41.6 59 -2.1 28.3
17:25 1007 29.74 836 24.69 3.5 38.3 76 -0.3 31.5
17:30 1007 29.74 836 24.69 1.9 35.5 86 -0.1 31.8
17:35 1007 29.74 837 24.72 0.8 33.4 94 -0 31.9
17:40 1008 29.77 837 24.72 0.2 32.3 97 -0.2 31.6
17:45 1008 29.77 837 24.72 -0 31.9 98 -0.3 31.5
17:50 1008 29.77 837 24.72 -0.4 31.4 99 -0.6 31
17:55 1008 29.77 837 24.72 -0.5 31 99 -0.7 30.8
18:00 1008 29.77 838 24.75 -0.6 31 100 -0.6 30.8
18:05 1009 29.8 838 24.75 -0.6 31 100 -0.6 30.9
18:10 1009 29.8 838 24.75 -0.6 30.9 100 -0.6 30.9
18:15 1009 29.8 838 24.75 -0.6 31 100 -0.6 31
18:20 1009 29.8 838 24.75 -0.5 31 100 -0.5 31
18:25 1009 29.8 838 24.75 -0.6 31 100 -0.6 30.9
18:30 1009 29.8 838 24.75 -0.6 30.9 100 -0.6 30.9
18:35 1009 29.8 838 24.75 -0.6 30.8 100 -0.7 30.8
18:40 1009 29.8 838 24.75 -0.7 30.8 100 -0.7 30.8
18:45 1009 29.8 838 24.75 -0.6 31 100 -0.6 31
18:50 1009 29.8 838 24.75 -0.6 30.9 100 -0.6 30.9
18:55 1009 29.8 838 24.75 -0.6 30.9 100 -0.6 30.9
19:00 1009 29.8 838 24.75 -0.6 30.9 100 -0.6 30.9
19:05 1009 29.8 838 24.75 -0.7 30.8 100 -0.7 30.8
19:10 1009 29.8 838 24.75 -0.7 30.8 100 -0.7 30.8
19:15 1009 29.8 838 24.75 -0.8 30.5 100 -0.8 30.5
19:20 1009 29.8 838 24.75 -0.9 30.3 100 -1 30.2
19:25 1009 29.8 838 24.75 -0.8 30.6 100 -0.8 30.6
19:30 1009 29.8 838 24.75 -0.6 30.9 100 -0.6 30.9
19:35 1009 29.8 839 24.78 -0.6 30.9 99 -0.7 30.7
19:40 1009 29.8 839 24.78 -0.7 30.8 99 -0.7 30.7
19:45 1009 29.8 839 24.78 -0.6 30.9 100 -0.7 30.8
19:50 1009 29.8 839 24.78 -0.6 30.9 99 -0.8 30.5
19:55 1009 29.8 839 24.78 -0.6 30.8 98 -0.9 30.3
20:00 1009 29.8 839 24.78 -0.7 30.8 98 -1 30.3
20:05 1009 29.8 839 24.78 -0.6 30.8 97 -1 30.2
20:10 1009 29.8 839 24.78 -0.8 30.6 97 -1.2 29.9
20:15 1009 29.8 839 24.78 -0.9 30.3 97 -1.3 29.6
20:20 1009 29.8 839 24.78 -1 30.2 97 -1.5 29.4
20:25 1009 29.8 839 24.78 -1 30.2 97 -1.5 29.4
20:30 1009 29.8 838 24.75 -0.9 30.3 96 -1.6 29.2
20:35 1009 29.8 838 24.75 -1 30.3 95 -1.6 29.1
20:40 1009 29.8 839 24.78 -1 30.2 94 -1.8 28.8
20:45 1009 29.8 839 24.78 -1.1 30 94 -2 28.4
20:50 1009 29.8 838 24.75 -1.1 30.1 91 -2.4 27.6
20:55 1009 29.8 838 24.75 -1 30.2 89 -2.5 27.4
21:00 1009 29.8 838 24.75 -0.9 30.4 88 -2.6 27.2
21:05 1009 29.8 839 24.78 -0.9 30.4 86 -2.9 26.8
21:10 1009 29.8 839 24.78 -0.7 30.7 84 -3.2 26.3
21:15 1010 29.83 839 24.78 -0.7 30.8 84 -3.1 26.5
21:20 1009 29.8 839 24.78 -0.7 30.7 84 -3.2 26.3
21:25 1009 29.8 839 24.78 -0.7 30.7 83 -3.2 26.3
21:30 1009 29.8 839 24.78 -0.7 30.8 81 -3.5 25.8
21:35 1009 29.8 839 24.78 -0.6 31 82 -3.3 26.1
21:40 1009 29.8 839 24.78 -0.6 31 82 -3.2 26.3
21:45 1010 29.83 839 24.78 -0.6 30.9 81 -3.5 25.8
21:50 1010 29.83 839 24.78 -0.6 30.8 80 -3.7 25.3
21:55 1010 29.83 839 24.78 -0.6 31 80 -3.6 25.4
22:00 1010 29.83 839 24.78 -0.6 30.9 79 -3.9 25
22:05 1010 29.83 839 24.78 -0.9 30.5 79 -4.1 24.6
22:10 1010 29.83 839 24.78 -0.7 30.7 78 -4.1 24.6
22:15 1010 29.83 839 24.78 -0.9 30.4 79 -4.1 24.6
22:20 1010 29.83 839 24.78 -1 30.1 78 -4.4 24.2
22:25 1010 29.83 839 24.78 -0.9 30.3 78 -4.3 24.3
22:30 1010 29.83 839 24.78 -0.9 30.4 78 -4.2 24.5
22:35 1010 29.83 839 24.78 -1 30.3 78 -4.3 24.2
22:40 1010 29.83 840 24.81 -1 30.2 77 -4.6 23.8
22:45 1010 29.83 840 24.81 -1 30.2 76 -4.7 23.5
22:50 1011 29.85 840 24.81 -1 30.2 77 -4.5 23.9
22:55 1011 29.85 840 24.81 -1.1 30 79 -4.3 24.2
23:00 1011 29.85 840 24.81 -1.4 29.5 79 -4.6 23.7
23:05 1011 29.85 840 24.81 -1.6 29.2 78 -4.9 23.1
23:10 1011 29.85 840 24.81 -1.7 29 76 -5.4 22.2
23:15 1011 29.85 840 24.81 -1.7 28.9 75 -5.5 22.1
23:20 1011 29.85 840 24.81 -1.8 28.8 75 -5.7 21.8
23:25 1011 29.85 840 24.81 -1.6 29.1 72 -6 21.2
23:30 1011 29.85 840 24.81 -1.4 29.5 72 -5.7 21.7
23:35 1011 29.85 840 24.81 -1.3 29.7 72 -5.7 21.7
23:40 1011 29.85 840 24.81 -1.3 29.6 72 -5.8 21.6
23:45 1011 29.85 840 24.81 -1.4 29.6 70 -6.1 21.1
23:50 1011 29.85 840 24.81 -1.1 30 66 -6.6 20
23:55 1011 29.85 840 24.81 -0.9 30.5 66 -6.4 20.5
24:00 1011 29.85 841 24.83 -0.9 30.4 67 -6.3 20.6